Madison, Pennsylvania
Current Conditions -  °F | °C
As of 3:45 PM on Saturday 22 Nov 2014 (Local Time) from KLBE Reporting Station
Overcast Overcast  
Wind Chill:   Ceiling: 5500
Heat Index:   Visibility: 10mi
Dew Point: -4°   Wind: 10mph
Humidity: 43%   Direction: 190°S
Pressure: 30.2"   Gusts: NA
Location:  40.25°N, 79.68°W
Report Text: KLBE 222045Z 19009KT 10SM SCT034 OVC055 08/M04 A3020 RMK OCNL -DZ
Loading
Personal Weather Stations






























Interactive Weather Map New forecast layout! Learn more

10-Day Weather Forecast

Advertisements
Track Severe Weather on mobile